createdAt,value
2018-08-22T00:00:40.899Z,860.83
2018-08-22T00:01:40.855Z,860.82
2018-08-22T00:02:40.654Z,860.83
2018-08-22T00:03:40.532Z,860.80
2018-08-22T00:04:40.412Z,860.84
2018-08-22T00:05:40.288Z,860.82
2018-08-22T00:06:40.169Z,860.84
2018-08-22T00:07:40.045Z,860.82
2018-08-22T00:08:39.930Z,860.82
2018-08-22T00:09:39.813Z,860.80
2018-08-22T00:10:39.681Z,860.82
2018-08-22T00:11:39.559Z,860.80
2018-08-22T00:12:39.438Z,860.79
2018-08-22T00:13:39.317Z,860.79
2018-08-22T00:14:39.195Z,860.80
2018-08-22T00:15:39.075Z,860.78
2018-08-22T00:16:38.954Z,860.83
2018-08-22T00:17:38.832Z,860.82
2018-08-22T00:18:38.709Z,860.77
2018-08-22T00:19:38.589Z,860.80
2018-08-22T00:20:38.465Z,860.80
2018-08-22T00:21:38.348Z,860.80
2018-08-22T00:22:38.224Z,860.80
2018-08-22T00:23:38.101Z,860.76
2018-08-22T00:24:37.989Z,860.80
2018-08-22T00:25:37.863Z,860.77
2018-08-22T00:26:37.735Z,860.81
2018-08-22T00:27:37.615Z,860.76
2018-08-22T00:28:37.505Z,860.78
2018-08-22T00:29:37.373Z,860.77
2018-08-22T00:30:37.251Z,860.75
2018-08-22T00:31:37.131Z,860.74
2018-08-22T00:32:37.009Z,860.76
2018-08-22T00:33:36.892Z,860.74
2018-08-22T00:34:36.773Z,860.74
2018-08-22T00:35:36.649Z,860.75
2018-08-22T00:36:36.525Z,860.72
2018-08-22T00:37:36.407Z,860.73
2018-08-22T00:38:36.284Z,860.73
2018-08-22T00:39:36.162Z,860.72
2018-08-22T00:40:36.041Z,860.74
2018-08-22T00:41:35.917Z,860.67
2018-08-22T00:42:35.798Z,860.71
2018-08-22T00:43:35.676Z,860.70
2018-08-22T00:44:35.559Z,860.69
2018-08-22T00:45:35.437Z,860.66
2018-08-22T00:46:35.310Z,860.66
2018-08-22T00:47:35.191Z,860.65
2018-08-22T00:48:35.090Z,860.64
2018-08-22T00:49:34.948Z,860.64
2018-08-22T00:50:34.828Z,860.63
2018-08-22T00:51:34.706Z,860.65
2018-08-22T00:52:34.585Z,860.62
2018-08-22T00:53:34.462Z,860.60
2018-08-22T00:54:34.343Z,860.60
2018-08-22T00:55:34.218Z,860.57
2018-08-22T00:56:34.102Z,860.59
2018-08-22T00:57:33.978Z,860.63
2018-08-22T00:58:33.859Z,860.62
2018-08-22T00:59:33.735Z,860.59
2018-08-22T01:00:33.615Z,860.60
2018-08-22T01:01:33.492Z,860.62
2018-08-22T01:02:33.370Z,860.61
2018-08-22T01:03:33.250Z,860.60
2018-08-22T01:04:33.130Z,860.60
2018-08-22T01:05:33.008Z,860.63
2018-08-22T01:06:32.891Z,860.63
2018-08-22T01:07:32.764Z,860.62
2018-08-22T01:08:32.642Z,860.60
2018-08-22T01:09:32.520Z,860.59
2018-08-22T01:10:32.406Z,860.60
2018-08-22T01:11:32.277Z,860.61
2018-08-22T01:12:32.156Z,860.58
2018-08-22T01:13:32.033Z,860.60
2018-08-22T01:14:31.916Z,860.57
2018-08-22T01:15:31.789Z,860.57
2018-08-22T01:16:31.668Z,860.56
2018-08-22T01:17:31.549Z,860.56
2018-08-22T01:18:31.431Z,860.59
2018-08-22T01:19:31.308Z,860.56
2018-08-22T01:20:31.186Z,860.59
2018-08-22T01:21:31.074Z,860.61
2018-08-22T01:22:30.938Z,860.61
2018-08-22T01:23:30.819Z,860.59
2018-08-22T01:24:30.699Z,860.60
2018-08-22T01:25:30.576Z,860.59
2018-08-22T01:26:30.455Z,860.60
2018-08-22T01:27:30.334Z,860.56
2018-08-22T01:28:30.211Z,860.57
2018-08-22T01:29:30.091Z,860.58
2018-08-22T01:30:29.965Z,860.58
2018-08-22T01:31:29.845Z,860.56
2018-08-22T01:32:29.724Z,860.55
2018-08-22T01:33:29.602Z,860.56
2018-08-22T01:34:29.486Z,860.56
2018-08-22T01:35:29.361Z,860.54
2018-08-22T01:36:29.237Z,860.54
2018-08-22T01:37:29.114Z,860.52
2018-08-22T01:38:28.993Z,860.53
2018-08-22T01:39:28.872Z,860.50
2018-08-22T01:40:28.749Z,860.52
2018-08-22T01:41:28.626Z,860.50
2018-08-22T01:42:28.503Z,860.48
2018-08-22T01:43:28.387Z,860.46
2018-08-22T01:44:28.264Z,860.49
2018-08-22T01:45:28.138Z,860.47
2018-08-22T01:46:28.020Z,860.48
2018-08-22T01:47:27.897Z,860.51
2018-08-22T01:48:27.776Z,860.49
2018-08-22T01:49:27.653Z,860.50
2018-08-22T01:50:27.531Z,860.51
2018-08-22T01:51:27.408Z,860.53
2018-08-22T01:52:27.285Z,860.54
2018-08-22T01:53:27.163Z,860.52
2018-08-22T01:54:27.042Z,860.55
2018-08-22T01:55:26.920Z,860.55
2018-08-22T01:56:26.797Z,860.51
2018-08-22T01:57:26.678Z,860.51
2018-08-22T01:58:26.555Z,860.52
2018-08-22T01:59:26.432Z,860.51
2018-08-22T02:00:26.310Z,860.50
2018-08-22T02:01:26.190Z,860.46
2018-08-22T02:02:26.068Z,860.51
2018-08-22T02:03:25.944Z,860.50
2018-08-22T02:04:25.828Z,860.48
2018-08-22T02:05:25.705Z,860.47
2018-08-22T02:06:25.577Z,860.48
2018-08-22T02:07:25.457Z,860.46
2018-08-22T02:08:25.334Z,860.45
2018-08-22T02:09:25.211Z,860.47
2018-08-22T02:10:25.090Z,860.47
2018-08-22T02:11:24.967Z,860.45
2018-08-22T02:12:24.845Z,860.46
2018-08-22T02:13:24.725Z,860.46
2018-08-22T02:14:24.601Z,860.42
2018-08-22T02:15:24.479Z,860.44
2018-08-22T02:16:24.362Z,860.41
2018-08-22T02:17:24.234Z,860.43
2018-08-22T02:18:24.114Z,860.40
2018-08-22T02:19:23.995Z,860.38
2018-08-22T02:20:23.869Z,860.42
2018-08-22T02:21:23.745Z,860.40
2018-08-22T02:22:23.625Z,860.38
2018-08-22T02:23:23.501Z,860.37
2018-08-22T02:24:23.379Z,860.37
2018-08-22T02:25:23.261Z,860.41
2018-08-22T02:26:23.135Z,860.40
2018-08-22T02:27:23.013Z,860.40
2018-08-22T02:28:22.893Z,860.44
2018-08-22T02:29:22.773Z,860.40
2018-08-22T02:30:22.648Z,860.46
2018-08-22T02:31:22.530Z,860.46
2018-08-22T02:32:22.405Z,860.44
2018-08-22T02:33:22.278Z,860.44
2018-08-22T02:34:22.160Z,860.44
2018-08-22T02:35:22.040Z,860.42
2018-08-22T02:36:21.912Z,860.40
2018-08-22T02:37:21.789Z,860.42
2018-08-22T02:38:21.668Z,860.41
2018-08-22T02:39:21.547Z,860.36
2018-08-22T02:40:21.425Z,860.40
2018-08-22T02:41:21.302Z,860.36
2018-08-22T02:42:21.179Z,860.37
2018-08-22T02:43:21.062Z,860.36
2018-08-22T02:44:20.936Z,860.39
2018-08-22T02:45:20.814Z,860.36
2018-08-22T02:46:20.688Z,860.35
2018-08-22T02:47:20.569Z,860.39
2018-08-22T02:48:20.445Z,860.38
2018-08-22T02:49:20.324Z,860.35
2018-08-22T02:50:20.204Z,860.36
2018-08-22T02:51:20.079Z,860.36
2018-08-22T02:52:19.957Z,860.36
2018-08-22T02:53:19.834Z,860.38
2018-08-22T02:54:19.712Z,860.36
2018-08-22T02:55:19.590Z,860.39
2018-08-22T02:56:19.465Z,860.35
2018-08-22T02:57:19.344Z,860.39
2018-08-22T02:58:19.223Z,860.36
2018-08-22T02:59:19.100Z,860.36
2018-08-22T03:00:18.976Z,860.31
2018-08-22T03:01:18.854Z,860.32
2018-08-22T03:02:18.731Z,860.28
2018-08-22T03:03:18.610Z,860.28
2018-08-22T03:04:18.486Z,860.28
2018-08-22T03:05:18.366Z,860.27
2018-08-22T03:06:18.240Z,860.26
2018-08-22T03:07:18.116Z,860.26
2018-08-22T03:08:17.996Z,860.26
2018-08-22T03:09:17.872Z,860.26
2018-08-22T03:10:17.751Z,860.22
2018-08-22T03:11:17.630Z,860.21
2018-08-22T03:12:17.508Z,860.23
2018-08-22T03:13:17.386Z,860.22
2018-08-22T03:14:17.256Z,860.24
2018-08-22T03:15:17.136Z,860.24
2018-08-22T03:16:17.016Z,860.25
2018-08-22T03:17:16.890Z,860.25
2018-08-22T03:18:16.766Z,860.25
2018-08-22T03:19:16.644Z,860.24
2018-08-22T03:20:16.522Z,860.25
2018-08-22T03:21:16.397Z,860.23
2018-08-22T03:22:16.278Z,860.23
2018-08-22T03:23:16.156Z,860.25
2018-08-22T03:24:16.031Z,860.23
2018-08-22T03:25:15.908Z,860.28
2018-08-22T03:26:15.853Z,860.27
2018-08-22T03:27:15.663Z,860.30
2018-08-22T03:28:15.539Z,860.31
2018-08-22T03:29:15.416Z,860.28
2018-08-22T03:30:15.292Z,860.30
2018-08-22T03:31:15.174Z,860.25
2018-08-22T03:32:15.051Z,860.26
2018-08-22T03:33:14.925Z,860.32
2018-08-22T03:34:14.802Z,860.29
2018-08-22T03:35:14.684Z,860.32
2018-08-22T03:36:14.559Z,860.29
2018-08-22T03:37:14.460Z,860.27
2018-08-22T03:38:14.311Z,860.29
2018-08-22T03:39:14.192Z,860.29
2018-08-22T03:40:14.066Z,860.28
2018-08-22T03:41:13.942Z,860.27
2018-08-22T03:42:13.820Z,860.29
2018-08-22T03:43:13.697Z,860.31
2018-08-22T03:44:13.575Z,860.30
2018-08-22T03:45:13.451Z,860.29
2018-08-22T03:46:13.328Z,860.31
2018-08-22T03:47:13.212Z,860.31
2018-08-22T03:48:13.084Z,860.29
2018-08-22T03:49:12.958Z,860.32
2018-08-22T03:50:12.845Z,860.29
2018-08-22T03:51:12.718Z,860.33
2018-08-22T03:52:12.594Z,860.32
2018-08-22T03:53:12.468Z,860.31
2018-08-22T03:54:12.347Z,860.32
2018-08-22T03:55:12.222Z,860.31
2018-08-22T03:56:12.101Z,860.29
2018-08-22T03:57:11.977Z,860.28
2018-08-22T03:58:11.858Z,860.27
2018-08-22T03:59:11.734Z,860.29
2018-08-22T04:00:11.609Z,860.31
2018-08-22T04:01:11.485Z,860.33
2018-08-22T04:02:11.365Z,860.30
2018-08-22T04:03:11.243Z,860.33
2018-08-22T04:04:11.117Z,860.34
2018-08-22T04:05:10.997Z,860.39
2018-08-22T04:06:10.873Z,860.37
2018-08-22T04:07:10.752Z,860.39
2018-08-22T04:08:10.627Z,860.44
2018-08-22T04:09:10.508Z,860.41
2018-08-22T04:10:10.389Z,860.43
2018-08-22T04:11:10.261Z,860.44
2018-08-22T04:12:10.135Z,860.45
2018-08-22T04:13:10.014Z,860.42
2018-08-22T04:14:09.892Z,860.46
2018-08-22T04:15:09.784Z,860.45
2018-08-22T04:16:09.643Z,860.46
2018-08-22T04:17:09.520Z,860.48
2018-08-22T04:18:09.397Z,860.50
2018-08-22T04:19:09.275Z,860.48
2018-08-22T04:20:09.153Z,860.48
2018-08-22T04:21:09.030Z,860.48
2018-08-22T04:22:08.906Z,860.49
2018-08-22T04:23:08.794Z,860.50
2018-08-22T04:24:08.701Z,860.50
2018-08-22T04:25:08.538Z,860.49
2018-08-22T04:26:08.415Z,860.54
2018-08-22T04:27:08.294Z,860.54
2018-08-22T04:28:08.184Z,860.55
2018-08-22T04:29:08.045Z,860.58
2018-08-22T04:30:07.927Z,860.55
2018-08-22T04:31:07.803Z,860.54
2018-08-22T04:32:07.679Z,860.53
2018-08-22T04:33:07.558Z,860.56
2018-08-22T04:34:07.435Z,860.52
2018-08-22T04:35:07.335Z,860.54
2018-08-22T04:36:07.188Z,860.56
2018-08-22T04:37:07.065Z,860.58
2018-08-22T04:38:06.942Z,860.58
2018-08-22T04:39:06.830Z,860.59
2018-08-22T04:40:06.698Z,860.59
2018-08-22T04:41:06.573Z,860.59
2018-08-22T04:42:06.455Z,860.57
2018-08-22T04:43:06.331Z,860.61
2018-08-22T04:44:06.206Z,860.57
2018-08-22T04:45:06.086Z,860.57
2018-08-22T04:46:05.961Z,860.57
2018-08-22T04:47:05.841Z,860.58
2018-08-22T04:48:05.733Z,860.54
2018-08-22T04:49:05.597Z,860.55
2018-08-22T04:50:05.474Z,860.56
2018-08-22T04:51:05.352Z,860.53
2018-08-22T04:52:05.229Z,860.58
2018-08-22T04:53:05.104Z,860.53
2018-08-22T04:54:04.985Z,860.56
2018-08-22T04:55:04.860Z,860.57
2018-08-22T04:56:04.748Z,860.57
2018-08-22T04:57:04.616Z,860.55
2018-08-22T04:58:04.494Z,860.54
2018-08-22T04:59:04.371Z,860.52
2018-08-22T05:00:04.250Z,860.54
2018-08-22T05:01:04.131Z,860.52
2018-08-22T05:02:04.006Z,860.56
2018-08-22T05:03:03.885Z,860.54
2018-08-22T05:04:03.762Z,860.54
2018-08-22T05:05:03.640Z,860.54
2018-08-22T05:06:03.582Z,860.55
2018-08-22T05:07:03.395Z,860.54
2018-08-22T05:08:03.272Z,860.54
2018-08-22T05:09:03.150Z,860.54
2018-08-22T05:10:03.030Z,860.54
2018-08-22T05:11:02.905Z,860.52
2018-08-22T05:12:02.782Z,860.54
2018-08-22T05:13:02.660Z,860.55
2018-08-22T05:14:02.539Z,860.54
2018-08-22T05:15:02.416Z,860.54
2018-08-22T05:16:02.293Z,860.51
2018-08-22T05:17:02.172Z,860.52
2018-08-22T05:18:02.053Z,860.54
2018-08-22T05:19:01.931Z,860.55
2018-08-22T05:20:01.807Z,860.51
2018-08-22T05:21:01.688Z,860.49
2018-08-22T05:22:01.561Z,860.51
2018-08-22T05:23:01.440Z,860.49
2018-08-22T05:24:01.317Z,860.53
2018-08-22T05:25:01.196Z,860.53
2018-08-22T05:26:01.083Z,860.54
2018-08-22T05:27:00.953Z,860.52
2018-08-22T05:28:00.832Z,860.52
2018-08-22T05:29:00.705Z,860.50
2018-08-22T05:30:00.620Z,860.54
2018-08-22T05:31:00.462Z,860.52
2018-08-22T05:32:00.344Z,860.53
2018-08-22T05:33:00.217Z,860.54
2018-08-22T05:34:00.096Z,860.54
2018-08-22T05:34:59.976Z,860.51
2018-08-22T05:35:59.857Z,860.50
2018-08-22T05:36:59.734Z,860.53
2018-08-22T05:37:59.611Z,860.48
2018-08-22T05:38:59.489Z,860.50
2018-08-22T05:39:59.403Z,860.49
2018-08-22T05:40:59.242Z,860.50
2018-08-22T05:41:59.123Z,860.49
2018-08-22T05:42:59.002Z,860.51
2018-08-22T05:43:58.878Z,860.55
2018-08-22T05:44:58.755Z,860.52
2018-08-22T05:45:58.635Z,860.54
2018-08-22T05:46:58.513Z,860.54
2018-08-22T05:47:58.393Z,860.56
2018-08-22T05:48:58.270Z,860.59
2018-08-22T05:49:58.148Z,860.59
2018-08-22T05:50:58.025Z,860.59
2018-08-22T05:51:57.904Z,860.60
2018-08-22T05:52:57.787Z,860.62
2018-08-22T05:53:57.661Z,860.62
2018-08-22T05:54:57.544Z,860.69
2018-08-22T05:55:57.420Z,860.63
2018-08-22T05:56:57.296Z,860.69
2018-08-22T05:57:57.175Z,860.69
2018-08-22T05:58:57.054Z,860.67
2018-08-22T05:59:56.938Z,860.70
2018-08-22T06:00:56.810Z,860.68
2018-08-22T06:01:56.689Z,860.67
2018-08-22T06:02:56.569Z,860.68
2018-08-22T06:03:56.450Z,860.70
2018-08-22T06:04:56.327Z,860.75
2018-08-22T06:05:56.203Z,860.72
2018-08-22T06:06:56.085Z,860.70
2018-08-22T06:07:55.965Z,860.68
2018-08-22T06:08:55.839Z,860.66
2018-08-22T06:09:55.721Z,860.70
2018-08-22T06:10:55.606Z,860.68
2018-08-22T06:11:55.475Z,860.63
2018-08-22T06:12:55.353Z,860.62
2018-08-22T06:13:55.234Z,860.64
2018-08-22T06:14:55.113Z,860.65
2018-08-22T06:15:55.008Z,860.67
2018-08-22T06:16:54.869Z,860.70
2018-08-22T06:17:54.748Z,860.69
2018-08-22T06:18:54.626Z,860.67
2018-08-22T06:19:54.506Z,860.65
2018-08-22T06:20:54.383Z,860.65
2018-08-22T06:21:54.264Z,860.66
2018-08-22T06:22:54.141Z,860.61
2018-08-22T06:23:54.020Z,860.61
2018-08-22T06:24:53.904Z,860.61
2018-08-22T06:25:53.780Z,860.59
2018-08-22T06:26:53.659Z,860.57
2018-08-22T06:27:53.539Z,860.55
2018-08-22T06:28:53.418Z,860.56
2018-08-22T06:29:53.294Z,860.58
2018-08-22T06:30:53.173Z,860.62
2018-08-22T06:31:53.058Z,860.62
2018-08-22T06:32:52.981Z,860.63
2018-08-22T06:33:52.811Z,860.63
2018-08-22T06:34:52.690Z,860.67
2018-08-22T06:35:52.571Z,860.66
2018-08-22T06:36:52.450Z,860.64
2018-08-22T06:37:52.328Z,860.66
2018-08-22T06:38:52.207Z,860.63
2018-08-22T06:39:52.087Z,860.64
2018-08-22T06:40:51.966Z,860.60
2018-08-22T06:41:51.845Z,860.63
2018-08-22T06:42:51.726Z,860.62
2018-08-22T06:43:51.606Z,860.62
2018-08-22T06:44:51.484Z,860.66
2018-08-22T06:45:51.363Z,860.65
2018-08-22T06:46:51.247Z,860.63
2018-08-22T06:47:51.122Z,860.65
2018-08-22T06:48:51.000Z,860.63
2018-08-22T06:49:50.878Z,860.67
2018-08-22T06:50:50.758Z,860.69
2018-08-22T06:51:50.638Z,860.67
2018-08-22T06:52:50.517Z,860.70
2018-08-22T06:53:50.395Z,860.68
2018-08-22T06:54:50.279Z,860.64
2018-08-22T06:55:50.156Z,860.63
2018-08-22T06:56:50.033Z,860.65
2018-08-22T06:57:49.912Z,860.63
2018-08-22T06:58:49.792Z,860.58
2018-08-22T06:59:49.671Z,860.62
2018-08-22T07:00:49.551Z,860.59
2018-08-22T07:01:49.430Z,860.60
2018-08-22T07:02:49.310Z,860.60
2018-08-22T07:03:49.189Z,860.61
2018-08-22T07:04:49.067Z,860.53
2018-08-22T07:05:48.949Z,860.55
2018-08-22T07:06:48.825Z,860.57
2018-08-22T07:07:48.706Z,860.57
2018-08-22T07:08:48.588Z,860.57
2018-08-22T07:09:48.467Z,860.56
2018-08-22T07:10:48.348Z,860.56
2018-08-22T07:11:48.230Z,860.57
2018-08-22T07:12:48.103Z,860.58
2018-08-22T07:13:47.984Z,860.54
2018-08-22T07:14:47.866Z,860.56
2018-08-22T07:15:47.743Z,860.53
2018-08-22T07:16:47.625Z,860.54
2018-08-22T07:17:47.504Z,860.50
2018-08-22T07:18:47.386Z,860.48
2018-08-22T07:19:47.265Z,860.49
2018-08-22T07:20:47.188Z,860.47
2018-08-22T07:21:47.025Z,860.47
2018-08-22T07:22:46.903Z,860.42
2018-08-22T07:23:46.786Z,860.46
2018-08-22T07:24:46.663Z,860.47
2018-08-22T07:25:46.543Z,860.51
2018-08-22T07:26:46.423Z,860.50
2018-08-22T07:27:46.306Z,860.51
2018-08-22T07:28:46.184Z,860.51
2018-08-22T07:29:46.067Z,860.51
2018-08-22T07:30:45.948Z,860.50
2018-08-22T07:31:45.827Z,860.45
2018-08-22T07:32:45.710Z,860.42
2018-08-22T07:33:45.588Z,860.40
2018-08-22T07:34:45.469Z,860.38
2018-08-22T07:35:45.382Z,860.42
2018-08-22T07:36:45.229Z,860.39
2018-08-22T07:37:45.111Z,860.41
2018-08-22T07:38:44.991Z,860.41
2018-08-22T07:39:44.875Z,860.44
2018-08-22T07:40:44.753Z,860.44
2018-08-22T07:41:44.635Z,860.47
2018-08-22T07:42:44.514Z,860.48
2018-08-22T07:43:44.394Z,860.47
2018-08-22T07:44:44.281Z,860.51
2018-08-22T07:45:44.157Z,860.51
2018-08-22T07:46:44.038Z,860.50
2018-08-22T07:47:43.919Z,860.51
2018-08-22T07:48:43.800Z,860.47
2018-08-22T07:49:43.682Z,860.44
2018-08-22T07:50:43.565Z,860.47
2018-08-22T07:51:43.446Z,860.47
2018-08-22T07:52:43.331Z,860.46
2018-08-22T07:53:43.210Z,860.48
2018-08-22T07:54:43.090Z,860.49
2018-08-22T07:55:42.971Z,860.51
2018-08-22T07:56:42.855Z,860.55
2018-08-22T07:57:42.738Z,860.56
2018-08-22T07:58:42.619Z,860.59
2018-08-22T07:59:42.500Z,860.63
2018-08-22T08:00:42.381Z,860.65
2018-08-22T08:01:42.309Z,860.61
2018-08-22T08:02:42.150Z,860.65
2018-08-22T08:03:42.028Z,860.68
2018-08-22T08:04:41.909Z,860.70
2018-08-22T08:05:41.793Z,860.64
2018-08-22T08:06:41.674Z,860.64
2018-08-22T08:07:41.559Z,860.61
2018-08-22T08:08:41.463Z,860.64
2018-08-22T08:09:41.321Z,860.68
2018-08-22T08:10:41.204Z,860.67
2018-08-22T08:11:41.090Z,860.65
2018-08-22T08:12:40.975Z,860.66
2018-08-22T08:13:40.854Z,860.68
2018-08-22T08:14:40.735Z,860.65
2018-08-22T08:15:40.624Z,860.64
2018-08-22T08:16:40.499Z,860.66
2018-08-22T08:17:40.383Z,860.65
2018-08-22T08:18:40.267Z,860.63
2018-08-22T08:19:40.148Z,860.63
2018-08-22T08:20:40.030Z,860.65
2018-08-22T08:21:39.915Z,860.67
2018-08-22T08:22:39.797Z,860.63
2018-08-22T08:23:39.682Z,860.61
2018-08-22T08:24:39.562Z,860.61
2018-08-22T08:25:39.447Z,860.57
2018-08-22T08:26:39.329Z,860.58
2018-08-22T08:27:39.214Z,860.60
2018-08-22T08:28:39.098Z,860.57
2018-08-22T08:29:38.978Z,860.59
2018-08-22T08:30:38.934Z,860.52
2018-08-22T08:31:38.753Z,860.56
2018-08-22T08:32:38.631Z,860.54
2018-08-22T08:33:38.511Z,860.56
2018-08-22T08:34:38.394Z,860.58
2018-08-22T08:35:38.359Z,860.56
2018-08-22T08:36:38.160Z,860.56
2018-08-22T08:37:38.041Z,860.51
2018-08-22T08:38:37.928Z,860.53
2018-08-22T08:39:37.808Z,860.52
2018-08-22T08:40:37.691Z,860.52
2018-08-22T08:41:37.630Z,860.50
2018-08-22T08:42:37.459Z,860.50
2018-08-22T08:43:37.349Z,860.48
2018-08-22T08:44:37.246Z,860.48
2018-08-22T08:45:37.107Z,860.50
2018-08-22T08:46:37.005Z,860.48
2018-08-22T08:47:36.877Z,860.51
2018-08-22T08:48:36.757Z,860.49
2018-08-22T08:49:36.726Z,860.50
2018-08-22T08:50:36.527Z,860.48
2018-08-22T08:51:36.412Z,860.50
2018-08-22T08:52:36.315Z,860.48
2018-08-22T08:53:36.176Z,860.49
2018-08-22T08:54:36.061Z,860.49
2018-08-22T08:55:35.941Z,860.49
2018-08-22T08:56:35.826Z,860.43
2018-08-22T08:57:35.709Z,860.40
2018-08-22T08:58:35.589Z,860.40
2018-08-22T08:59:35.476Z,860.38
2018-08-22T09:00:35.357Z,860.42
2018-08-22T09:01:35.251Z,860.44
2018-08-22T09:02:35.141Z,860.36
2018-08-22T09:03:35.009Z,860.40
2018-08-22T09:04:34.894Z,860.42
2018-08-22T09:05:34.775Z,860.41
2018-08-22T09:06:34.702Z,860.42
2018-08-22T09:07:34.544Z,860.41
2018-08-22T09:08:34.428Z,860.43
2018-08-22T09:09:34.309Z,860.40
2018-08-22T09:10:34.199Z,860.38
2018-08-22T09:11:34.079Z,860.40
2018-08-22T09:12:33.963Z,860.38
2018-08-22T09:13:33.845Z,860.38
2018-08-22T09:14:33.730Z,860.38
2018-08-22T09:15:33.635Z,860.39
2018-08-22T09:16:33.498Z,860.38
2018-08-22T09:17:33.382Z,860.37
2018-08-22T09:18:33.264Z,860.38
2018-08-22T09:19:33.157Z,860.38
2018-08-22T09:20:33.039Z,860.38
2018-08-22T09:21:32.974Z,860.35
2018-08-22T09:22:32.802Z,860.40
2018-08-22T09:23:32.685Z,860.37
2018-08-22T09:24:32.568Z,860.35
2018-08-22T09:25:32.456Z,860.36
2018-08-22T09:26:32.338Z,860.32
2018-08-22T09:27:32.220Z,860.30
2018-08-22T09:28:32.107Z,860.34
2018-08-22T09:29:32.000Z,860.33
2018-08-22T09:30:31.874Z,860.34
2018-08-22T09:31:31.759Z,860.33
2018-08-22T09:32:31.642Z,860.34
2018-08-22T09:33:31.528Z,860.33
2018-08-22T09:34:31.412Z,860.31
2018-08-22T09:35:31.305Z,860.29
2018-08-22T09:36:31.198Z,860.27
2018-08-22T09:37:31.064Z,860.31
2018-08-22T09:38:30.945Z,860.33
2018-08-22T09:39:30.845Z,860.34
2018-08-22T09:40:30.712Z,860.29
2018-08-22T09:41:30.595Z,860.31
2018-08-22T09:42:30.479Z,860.32
2018-08-22T09:43:30.365Z,860.32
2018-08-22T09:44:30.247Z,860.32
2018-08-22T09:45:30.135Z,860.32
2018-08-22T09:46:30.044Z,860.33
2018-08-22T09:47:29.897Z,860.31
2018-08-22T09:48:29.789Z,860.29
2018-08-22T09:49:29.667Z,860.30
2018-08-22T09:50:29.549Z,860.30
2018-08-22T09:51:29.433Z,860.23
2018-08-22T09:52:29.316Z,860.24
2018-08-22T09:53:29.202Z,860.25
2018-08-22T09:54:29.097Z,860.25
2018-08-22T09:55:28.977Z,860.26
2018-08-22T09:56:28.852Z,860.23
2018-08-22T09:57:28.737Z,860.25
2018-08-22T09:58:28.617Z,860.26
2018-08-22T09:59:28.512Z,860.24
2018-08-22T10:00:28.385Z,860.20
2018-08-22T10:01:28.269Z,860.23
2018-08-22T10:02:28.154Z,860.25
2018-08-22T10:03:28.036Z,860.21
2018-08-22T10:04:27.924Z,860.24
2018-08-22T10:05:27.807Z,860.26
2018-08-22T10:06:27.756Z,860.25
2018-08-22T10:07:27.663Z,860.20
2018-08-22T10:08:27.456Z,860.21
2018-08-22T10:09:27.342Z,860.20
2018-08-22T10:10:27.225Z,860.21
2018-08-22T10:11:27.115Z,860.20
2018-08-22T10:12:26.994Z,860.18
2018-08-22T10:13:26.874Z,860.20
2018-08-22T10:14:26.760Z,860.21
2018-08-22T10:15:26.646Z,860.21
2018-08-22T10:16:26.531Z,860.21
2018-08-22T10:17:26.412Z,860.20
2018-08-22T10:18:26.298Z,860.17
2018-08-22T10:19:26.182Z,860.18
2018-08-22T10:20:26.066Z,860.17
2018-08-22T10:21:25.946Z,860.18
2018-08-22T10:22:25.834Z,860.16
2018-08-22T10:23:25.718Z,860.13
2018-08-22T10:24:25.604Z,860.11
2018-08-22T10:25:25.487Z,860.14
2018-08-22T10:26:25.382Z,860.09
2018-08-22T10:27:25.253Z,860.07
2018-08-22T10:28:25.137Z,860.07
2018-08-22T10:29:25.023Z,860.10
2018-08-22T10:30:24.908Z,860.06
2018-08-22T10:31:24.790Z,860.06
2018-08-22T10:32:24.675Z,860.06
2018-08-22T10:33:24.561Z,860.06
2018-08-22T10:34:24.446Z,860.03
2018-08-22T10:35:24.330Z,860.03
2018-08-22T10:36:24.212Z,860.03
2018-08-22T10:37:24.098Z,859.99
2018-08-22T10:38:23.985Z,859.98
2018-08-22T10:39:23.878Z,860.00
2018-08-22T10:40:23.752Z,859.98
2018-08-22T10:41:23.638Z,860.00
2018-08-22T10:42:23.523Z,860.01
2018-08-22T10:43:23.411Z,859.96
2018-08-22T10:44:23.347Z,859.99
2018-08-22T10:45:23.185Z,860.00
2018-08-22T10:46:23.065Z,859.97
2018-08-22T10:47:22.949Z,859.99
2018-08-22T10:48:22.862Z,859.95
2018-08-22T10:49:22.719Z,859.95
2018-08-22T10:50:22.604Z,859.92
2018-08-22T10:51:22.492Z,859.96
2018-08-22T10:52:22.375Z,859.92
2018-08-22T10:53:22.264Z,859.88
2018-08-22T10:54:22.148Z,859.91
2018-08-22T10:55:22.059Z,859.87
2018-08-22T10:56:21.916Z,859.87
2018-08-22T10:57:21.802Z,859.87
2018-08-22T10:58:21.690Z,859.86
2018-08-22T10:59:21.576Z,859.82
2018-08-22T11:00:21.463Z,859.84
2018-08-22T11:01:21.347Z,859.83
2018-08-22T11:02:21.235Z,859.79
2018-08-22T11:03:21.120Z,859.81
2018-08-22T11:04:21.004Z,859.85
2018-08-22T11:05:20.891Z,859.82
2018-08-22T11:06:20.773Z,859.84
2018-08-22T11:07:20.661Z,859.84
2018-08-22T11:08:20.545Z,859.83
2018-08-22T11:09:20.431Z,859.82
2018-08-22T11:10:20.316Z,859.78
2018-08-22T11:11:20.205Z,859.80
2018-08-22T11:12:20.092Z,859.78
2018-08-22T11:13:19.975Z,859.78
2018-08-22T11:14:19.858Z,859.77
2018-08-22T11:15:19.746Z,859.76
2018-08-22T11:16:19.629Z,859.74
2018-08-22T11:17:19.516Z,859.75
2018-08-22T11:18:19.399Z,859.75
2018-08-22T11:19:19.282Z,859.72
2018-08-22T11:20:19.169Z,859.72
2018-08-22T11:21:19.067Z,859.71
2018-08-22T11:22:19.006Z,859.73
2018-08-22T11:23:18.824Z,859.78
2018-08-22T11:24:18.710Z,859.78
2018-08-22T11:25:18.594Z,859.77
2018-08-22T11:26:18.481Z,859.77
2018-08-22T11:27:18.367Z,859.79
2018-08-22T11:28:18.252Z,859.77
2018-08-22T11:29:18.136Z,859.78
2018-08-22T11:30:18.020Z,859.78
2018-08-22T11:31:17.905Z,859.75
2018-08-22T11:32:17.793Z,859.78
2018-08-22T11:33:17.676Z,859.78
2018-08-22T11:34:17.568Z,859.80
2018-08-22T11:35:17.449Z,859.80
2018-08-22T11:36:17.334Z,859.78
2018-08-22T11:37:17.223Z,859.78
2018-08-22T11:38:17.102Z,859.78
2018-08-22T11:39:16.990Z,859.74
2018-08-22T11:40:16.876Z,859.71
2018-08-22T11:41:16.761Z,859.70
2018-08-22T11:42:16.644Z,859.70
2018-08-22T11:43:16.536Z,859.70
2018-08-22T11:44:16.416Z,859.72
2018-08-22T11:45:16.941Z,859.68
2018-08-22T11:46:16.198Z,859.67
2018-08-22T11:47:16.074Z,859.69
2018-08-22T11:48:15.960Z,859.67
2018-08-22T11:49:15.845Z,859.69
2018-08-22T11:50:15.729Z,859.66
2018-08-22T11:51:15.616Z,859.67
2018-08-22T11:52:15.503Z,859.69
2018-08-22T11:53:15.391Z,859.67
2018-08-22T11:54:15.274Z,859.64
2018-08-22T11:55:15.161Z,859.66
2018-08-22T11:56:15.049Z,859.69
2018-08-22T11:57:14.934Z,859.69
2018-08-22T11:58:14.852Z,859.68
2018-08-22T11:59:14.708Z,859.68
2018-08-22T12:00:14.592Z,859.68
2018-08-22T12:01:14.492Z,859.69
2018-08-22T12:02:14.369Z,859.66
2018-08-22T12:03:14.253Z,859.63
2018-08-22T12:04:14.140Z,859.61
2018-08-22T12:05:14.027Z,859.63
2018-08-22T12:06:13.928Z,859.65
2018-08-22T12:07:13.819Z,859.63
2018-08-22T12:08:13.689Z,859.60
2018-08-22T12:09:13.573Z,859.59
2018-08-22T12:10:13.461Z,859.54
2018-08-22T12:11:13.354Z,859.54
2018-08-22T12:12:13.238Z,859.56
2018-08-22T12:13:13.123Z,859.55
2018-08-22T12:14:13.011Z,859.53
2018-08-22T12:15:12.901Z,859.53
2018-08-22T12:16:12.851Z,859.57
2018-08-22T12:17:12.675Z,859.56
2018-08-22T12:18:12.563Z,859.56
2018-08-22T12:19:12.452Z,859.57
2018-08-22T12:20:12.341Z,859.58
2018-08-22T12:21:12.228Z,859.55
2018-08-22T12:22:12.114Z,859.55
2018-08-22T12:23:12.127Z,859.55
2018-08-22T12:24:11.890Z,859.53
2018-08-22T12:25:11.780Z,859.55
2018-08-22T12:26:11.666Z,859.51
2018-08-22T12:27:11.554Z,859.49